Ringwood, New Jersey
Current Conditions -  °F | °C
As of 4:53 PM on Tuesday 21 Oct 2014 (Local Time) from KCDW Reporting Station
Overcast Overcast  
Wind Chill: 57°   Ceiling: 6000
Heat Index: 57°   Visibility: 10mi
Dew Point: 53°   Wind: 5mph
Humidity: 87%   Direction: 40°NE
Pressure: 29.84"   Gusts: NA
Location:  41.13°N, 74.26°W
Report Text: KCDW 212053Z 04004KT 10SM FEW034 OVC060 14/12 A2984 RMK AO2 RAE34 SLP109 P0001 60024 T01390117 55001
Loading
Personal Weather Stations






























Interactive Weather Map
Tropical Storm Tracking
New forecast layout! Learn more

10-Day Weather Forecast

Advertisements
Track Severe Weather on mobile